Аэропорт: Игнатьево. Благовещенск

ICAO: UHBB

METAR:
2021-04-21 20:00:00
UHBB 212000Z 16005MPS 4000 FU SCT026CB 11/02 Q1009 R18/090060 NOSIG RMK QFE741/0988
METAR:
2021-04-21 16:55:00
TAF UHBB 211655Z 2118/2218 15005G10MPS 3100 HZ BKN020CB TEMPO 2203/2206 05006G11MPS FM220600 36007G12MPS 9999 BKN020CB BECMG 2210/2212 34003G08MPS